Meteo Giornale » Osservazioni meteo Guadalupa » Gustavia Saint Barthelemy
ore: 04:00 - Osservazioni Meteo Gustavia Saint Barthelemy
Lat. 17° 54' N Lon. 62° 51' W Alt. 48 metri s.l.m.
28 °C
Molto Nuvoloso
Temp. 24 Ore
26 °C
30 °C
Est
13 Km/h
Dew point 25 °C
Umidità 83 %
Visibilità 10 Km
Il sole sorge alle ore 05:57
Il sole tramonta alle ore 18:25
| Data e Ora | Cielo e Fenomeni | T °C | DP °C | Um. % | Pres. hPa | Vis. km | Vento km/h | |
|---|---|---|---|---|---|---|---|---|
| Oggi h: 04:00 | Molto Nuvoloso | 28 | 25 | 83 | 1015 | 10 | E 13 | |
| Oggi h: 03:30 | Coperto | 28 | 25 | 83 | 1015 | 10 | E 13 | |
| Oggi h: 03:00 | Coperto | 28 | 25 | 83 | 1015 | 10 | E/NE 9.3 | |
| Oggi h: 02:30 | Molto Nuvoloso | 28 | 25 | 83 | 1015 | 10 | E/NE 16.7 | |
| Oggi h: 02:00 | Coperto | 28 | 26 | 88 | 1015 | 10 | E/NE 14.8 | |
| Oggi h: 01:30 | Coperto | 28 | 26 | 88 | 1016 | 8 | E/NE 16.7 | |
| Oggi h: 01:00 | Coperto | 29 | 26 | 83 | 1016 | 9 | E/NE 18.5 | |
| Oggi h: 00:30 | Coperto | 29 | 25 | 79 | 1016 | 9 | E/NE 14.8 | |
| Oggi h: 00:00 | Coperto | 29 | 25 | 79 | 1017 | 10 | E/NE 18.5 | |
| Ieri h: 23:30 | Sereno | 28 | 24 | 78 | 1017 | 10 | E 14.8 | |
| Ieri h: 23:00 | Coperto | 28 | 25 | 83 | 1016 | 9 | E/NE 14.8 | |
| Ieri h: 22:30 | Coperto | 29 | 25 | 79 | 1017 | 9 | E/NE 13 | |
| Ieri h: 22:00 | Molto Nuvoloso | 29 | 25 | 79 | 1017 | 9 | E 13 | |
| Ieri h: 21:30 | Coperto | 29 | 25 | 79 | 1017 | 9 | E/NE 13 | |
| Ieri h: 21:00 | Coperto | 29 | 25 | 79 | 1017 | 10 | E 14.8 | |
| Ieri h: 20:30 | Coperto | 29 | 25 | 79 | 1016 | 9 | E 11.1 | |
| Ieri h: 20:00 | Coperto | 29 | 25 | 79 | 1016 | 10 | E 13 | |
| Ieri h: 19:30 | Coperto | 29 | 25 | 79 | 1016 | 10 | E 24 | |
| Ieri h: 19:00 | Coperto | 29 | 25 | 79 | 1015 | 9 | E 22.2 | |
| Ieri h: 18:30 | Coperto | 29 | 25 | 79 | 1015 | 10 | E 25.9 | |
| Ieri h: 18:00 | Molto Nuvoloso | 28 | 25 | 83 | 1015 | 9 | E 27.8 | |
| Ieri h: 17:30 | Molto Nuvoloso | 28 | 26 | 88 | 1015 | 8 | E 22.2 | |
| Ieri h: 17:00 | Molto Nuvoloso | 28 | 26 | 88 | 1015 | 7 | E 14.8 | |
| Ieri h: 16:30 | Pioggia Foschia | 28 | 26 | 88 | 1015 | 4 | E 11.1 | |
| Ieri h: 16:00 | Pioggia | 29 | 25 | 79 | 1015 | 10 | E 16.7 | |
| Ieri h: 15:30 | Molto Nuvoloso | 29 | 26 | 83 | 1015 | 8 | E/NE 14.8 | |
| Ieri h: 15:00 | Molto Nuvoloso | 29 | 26 | 83 | 1015 | 8 | E/NE 18.5 | |
| Ieri h: 14:30 | Molto Nuvoloso | 28 | 25 | 83 | 1016 | 10 | NE 24 | |
| Ieri h: 14:00 | Molto Nuvoloso | 29 | 26 | 83 | 1016 | 8 | NE 25.9 | |
| Ieri h: 13:30 | Molto Nuvoloso | 30 | 26 | 79 | 1016 | 10 | NE 25.9 | |
| Ieri h: 13:00 | Sereno | 29 | 26 | 83 | 1016 | 9 | E/NE 24 | |
| Ieri h: 12:30 | Coperto | 28 | 25 | 83 | 1016 | 9 | E/NE 18.5 | |
| Ieri h: 12:00 | Molto Nuvoloso | 29 | 25 | 79 | 1016 | 9 | E/NE 24 | |
| Ieri h: 11:30 | Molto Nuvoloso | 29 | 26 | 83 | 1016 | 10 | E/NE 22.2 | |
| Ieri h: 11:00 | Sereno | 28 | 24 | 78 | 1016 | 10 | E 20.3 | |
| Ieri h: 10:30 | Sereno | 27 | 23 | 78 | 1017 | 10 | E/NE 22.2 | |
| Ieri h: 10:00 | Coperto | 27 | 23 | 78 | 1017 | 10 | E 29.6 | |
| Ieri h: 09:30 | Molto Nuvoloso | 27 | 23 | 78 | 1017 | 10 | E 24 | |
| Ieri h: 09:00 | Sereno | 27 | 23 | 78 | 1016 | 10 | E 24 | |
| Ieri h: 08:30 | Molto Nuvoloso | 26 | 23 | 83 | 1016 | 10 | E 22.2 | |
| Ieri h: 08:00 | Molto Nuvoloso | 26 | 24 | 88 | 1016 | 7 | E/NE 24 | |
| Ieri h: 07:30 | Pioggia | 26 | 23 | 83 | 1016 | 10 | SE 7.4 | |
| Ieri h: 07:00 | Molto Nuvoloso | 28 | 23 | 74 | 1016 | 10 | E 16.7 | |
| Ieri h: 06:30 | Molto Nuvoloso | 28 | 24 | 78 | 1015 | 10 | E 22.2 | |
| Ieri h: 06:00 | Coperto | 28 | 24 | 78 | 1015 | 10 | E 18.5 | |
| Ieri h: 05:30 | Coperto | 28 | 25 | 83 | 1015 | 9 | E 16.7 | |
| Ieri h: 05:00 | Coperto | 28 | 24 | 78 | 1015 | 10 | E 18.5 | |



